Skip Navigation Links
NOAA logo - Click to go to the NOAA homepage
NOAA's National Weather Service
Alaska Aviation Weather Unit
  NWS logo - Click to go to the NWS homepage
Left Navbar Graphic     01 AKDT = 09 GMT

   
NOAA is celebrating 200 years of science, service, and stewardship. Visit the NOAA 200th celebration Web site to learn more.
USA.gov is the U.S. Government's official Web portal to all Federal, state and local government Web resources and services.
Facebook
NWS on Facebook

Important Change Regarding the AAWU Web Presence

 

Over the last several months, the AAWU has been working to navigate its webpages to a nationally supported server. Security, as well as other needs, have necessitated the change.  We have been given an extension for the site changeover while we diligently work at addressing feedback received. As of July 14, 2017, aawu.arh.noaa.gov will be discontinued. The new AAWU web address is weather.gov/aawu. It is now live and will run in-parallel with the old site until it is discontinued on July 14, 2017. Please continue to send any feedback or questions regarding the new webpages to nws.ar.aawu.webauthors@noaa.gov.  Thank you for your patience during this time of transition.
AAWU Home :: Display TAF Add Bookmark
PADK 190316Z AUTO 01011KT 4SM 09/04 A2971=

PADK 190336Z AUTO 01010KT 5SM 09/04 A2970=

METAR PADK 190356Z AUTO 01010KT 7SM 09/04 A2971=

PADK 190416Z AUTO 36010KT 10SM 09/04 A2971=

PADK 190436Z AUTO 36011KT 10SM 09/04 A2971=

METAR PADK 190456Z AUTO 36009KT 9SM 09/04 A2971=

PADK 190516Z AUTO 35012KT 10SM 09/04 A2971=

PADK 190536Z AUTO 35012KT 10SM 09/04 A2971=

METAR PADK 190556Z AUTO 36012KT 10SM 09/04 A2971=

PADK 190616Z AUTO 01013G17KT 10SM 09/04 A2971=

PADK 190636Z AUTO 02013KT 10SM 09/04 A2971=

METAR PADK 190656Z AUTO 01011KT 10SM 09/04 A2971=

PADK 190716Z AUTO 01011G16KT 10SM 09/04 A2971=

PADK 190736Z AUTO 01011KT 10SM 09/04 A2972=

METAR PADK 190756Z AUTO 36015G18KT 10SM 09/04 A2972=

PADK 190816Z AUTO 01011KT 10SM 09/04 A2972=

PADK 190836Z AUTO 01014G17KT 10SM 09/04 A2972=

METAR PADK 190856Z AUTO 01011KT 10SM 09/04 A2973=


NOAA's National Weather Service
Alaska Aviation Weather Unit
6930 Sand Lake Road
Anchorage, AK 99502-1845
Disclaimer
Credits
Glossary
Privacy Policy
About Us
Career Opportunities
Contact AAWU Internet Services Site last modified: April, 17th 2012